Time;durP1;ratioP1;P1;durP2;ratioP2;P2;SDS_P1;SDS_P2;PMS_P1;PMS_P2;Temp;Humidity;BMP_temperature;BMP_pressure;BME280_temperature;BME280_humidity;BME280_pressure;Samples;Min_cycle;Max_cycle;Signal;HPM_P1;HPM_P2
2024/01/29 00:02:36;;;;;;;1.87;1.77;;;;;4.00;101951.00;;;;5086037;28;20235;-67
2024/01/29 00:05:22;;;;;;;1.90;1.70;;;;;4.10;101948.00;;;;5085770;28;20235;-67
2024/01/29 00:08:10;;;;;;;2.60;2.30;;;;;4.10;101943.00;;;;5086593;28;20227;-65
2024/01/29 00:10:56;;;;;;;3.03;2.00;;;;;4.10;101942.00;;;;5080429;28;20736;-66
2024/01/29 00:13:42;;;;;;;2.10;1.90;;;;;4.10;101952.00;;;;5085617;28;20273;-68
2024/01/29 00:16:29;;;;;;;2.40;1.90;;;;;4.10;101934.00;;;;5086258;28;20815;-67
2024/01/29 00:19:16;;;;;;;1.60;1.50;;;;;4.10;101944.00;;;;5086662;28;20628;-66
2024/01/29 00:22:02;;;;;;;5.67;2.20;;;;;4.10;101942.00;;;;5080993;28;20231;-66
2024/01/29 00:24:50;;;;;;;3.67;1.97;;;;;4.10;101939.00;;;;5084825;28;20325;-67
2024/01/29 00:27:36;;;;;;;2.60;1.87;;;;;4.10;101941.00;;;;5086115;28;20261;-68
2024/01/29 00:30:23;;;;;;;2.00;1.80;;;;;4.10;101933.00;;;;5086105;28;20258;-67
2024/01/29 00:33:09;;;;;;;1.63;1.50;;;;;4.20;101937.00;;;;5081876;28;20239;-66
2024/01/29 00:35:55;;;;;;;1.57;1.47;;;;;4.20;101937.00;;;;5084783;28;20312;-67
2024/01/29 00:38:41;;;;;;;2.00;1.80;;;;;4.20;101937.00;;;;5085227;28;20235;-67
2024/01/29 00:41:29;;;;;;;2.63;1.50;;;;;4.10;101931.00;;;;5086403;28;20265;-68
2024/01/29 00:44:17;;;;;;;2.93;1.60;;;;;4.20;101941.00;;;;5082345;28;20827;-66
2024/01/29 00:47:04;;;;;;;1.60;1.50;;;;;4.10;101943.00;;;;5083798;28;20301;-66
2024/01/29 00:49:51;;;;;;;3.70;1.70;;;;;4.10;101938.00;;;;5081155;28;20232;-69
2024/01/29 00:52:37;;;;;;;2.30;1.63;;;;;4.10;101945.00;;;;5084952;28;20273;-67
2024/01/29 00:55:24;;;;;;;2.10;1.80;;;;;4.00;101940.00;;;;5085501;28;20277;-66
2024/01/29 00:58:11;;;;;;;1.67;1.57;;;;;4.00;101941.00;;;;5080301;28;20231;-67
2024/01/29 01:00:57;;;;;;;2.37;1.60;;;;;4.00;101942.00;;;;5085387;28;20266;-67
2024/01/29 01:03:44;;;;;;;1.67;1.57;;;;;4.00;101946.00;;;;5085197;28;20232;-67
2024/01/29 01:06:31;;;;;;;2.53;2.00;;;;;3.90;101945.00;;;;5085655;28;20609;-67
2024/01/29 01:09:18;;;;;;;6.33;1.97;;;;;3.90;101937.00;;;;5085816;28;20231;-67
2024/01/29 01:12:05;;;;;;;2.00;1.80;;;;;3.80;101936.00;;;;5082584;28;20231;-66
2024/01/29 01:14:53;;;;;;;1.70;1.60;;;;;3.80;101936.00;;;;5081932;28;20714;-67
2024/01/29 01:17:40;;;;;;;2.80;1.50;;;;;3.80;101934.00;;;;5086032;28;20373;-69
2024/01/29 01:20:26;;;;;;;3.00;1.87;;;;;3.80;101936.00;;;;5082990;28;20231;-67
2024/01/29 01:23:13;;;;;;;2.40;1.63;;;;;3.80;101940.00;;;;5085692;28;20218;-66
2024/01/29 01:25:59;;;;;;;2.10;1.90;;;;;3.80;101946.00;;;;5085664;28;20854;-65
2024/01/29 01:28:46;;;;;;;3.60;2.00;;;;;3.70;101940.00;;;;5082291;28;20239;-65
2024/01/29 01:31:33;;;;;;;2.00;1.70;;;;;3.70;101952.00;;;;5083420;28;20255;-66
2024/01/29 01:34:19;;;;;;;2.43;1.77;;;;;3.70;101946.00;;;;5086001;28;20721;-66
2024/01/29 01:37:07;;;;;;;2.90;1.87;;;;;3.60;101947.00;;;;5080288;28;20223;-67
2024/01/29 01:39:53;;;;;;;1.80;1.60;;;;;3.60;101954.00;;;;5077698;28;20246;-65
2024/01/29 01:42:40;;;;;;;1.73;1.47;;;;;3.60;101956.00;;;;5083998;28;20231;-66
2024/01/29 01:45:28;;;;;;;1.93;1.73;;;;;3.60;101956.00;;;;5084505;28;20231;-66
2024/01/29 01:48:16;;;;;;;2.40;1.73;;;;;3.60;101958.00;;;;5084814;28;20803;-67
2024/01/29 01:51:04;;;;;;;2.03;1.30;;;;;3.60;101960.00;;;;5085444;28;20920;-68
2024/01/29 01:53:54;;;;;;;1.73;1.63;;;;;3.50;101968.00;;;;5077019;28;20223;-65
2024/01/29 01:56:40;;;;;;;3.10;2.33;;;;;3.50;101962.00;;;;5083224;28;20317;-67
2024/01/29 01:59:27;;;;;;;2.33;1.40;;;;;3.50;101959.00;;;;5081873;28;20259;-64
2024/01/29 02:02:13;;;;;;;1.93;1.60;;;;;3.50;101972.00;;;;5080746;28;20226;-65
2024/01/29 02:05:01;;;;;;;2.43;1.87;;;;;3.50;101961.00;;;;5084380;28;20219;-66
2024/01/29 02:07:47;;;;;;;1.87;1.60;;;;;3.50;101951.00;;;;5082841;28;20346;-67
2024/01/29 02:10:34;;;;;;;3.83;1.50;;;;;3.50;101954.00;;;;5081375;28;20338;-67
2024/01/29 02:13:20;;;;;;;2.33;1.53;;;;;3.50;101958.00;;;;5084395;28;20249;-65
2024/01/29 02:16:07;;;;;;;1.80;1.43;;;;;3.40;101961.00;;;;5083777;28;20849;-65
2024/01/29 02:18:53;;;;;;;4.73;1.70;;;;;3.30;101958.00;;;;5083792;28;20227;-65
2024/01/29 02:21:41;;;;;;;1.93;1.83;;;;;3.30;101953.00;;;;5084298;28;20231;-68
2024/01/29 02:24:29;;;;;;;1.50;1.40;;;;;3.30;101954.00;;;;5080408;28;20235;-65
2024/01/29 02:27:15;;;;;;;2.00;1.83;;;;;3.30;101961.00;;;;5084536;28;20231;-65
2024/01/29 02:30:02;;;;;;;1.57;1.47;;;;;3.30;101956.00;;;;5077886;28;20227;-64
2024/01/29 02:32:49;;;;;;;2.70;1.80;;;;;3.20;101952.00;;;;5078046;28;20223;-66
2024/01/29 02:35:36;;;;;;;1.57;1.47;;;;;3.20;101945.00;;;;5081784;28;20353;-66
2024/01/29 02:38:22;;;;;;;1.90;1.30;;;;;3.20;101967.00;;;;5077942;28;20243;-65
2024/01/29 02:41:10;;;;;;;1.73;1.50;;;;;3.30;101959.00;;;;5083330;28;20227;-67
2024/01/29 02:43:56;;;;;;;1.53;1.37;;;;;3.20;101961.00;;;;5080782;28;20235;-67
2024/01/29 02:46:42;;;;;;;1.40;1.30;;;;;3.20;101950.00;;;;5083782;28;20242;-65
2024/01/29 02:49:28;;;;;;;3.90;1.70;;;;;3.20;101968.00;;;;5080525;28;20246;-65
2024/01/29 02:52:16;;;;;;;1.27;1.20;;;;;3.20;101967.00;;;;5079470;28;20853;-65
2024/01/29 02:55:02;;;;;;;1.43;1.33;;;;;3.20;101971.00;;;;5082625;28;20589;-65
2024/01/29 02:57:50;;;;;;;2.43;1.83;;;;;3.20;101974.00;;;;5081438;28;20223;-66
2024/01/29 03:00:36;;;;;;;1.50;1.40;;;;;3.20;101960.00;;;;5081857;28;20227;-65
2024/01/29 03:03:22;;;;;;;1.50;1.37;;;;;3.20;101966.00;;;;5081978;28;20227;-66
2024/01/29 03:06:09;;;;;;;1.10;1.10;;;;;3.20;101963.00;;;;5073181;28;20231;-66
2024/01/29 03:08:55;;;;;;;2.00;1.50;;;;;3.20;101969.00;;;;5080297;28;20238;-65
2024/01/29 03:11:41;;;;;;;2.23;1.80;;;;;3.30;101964.00;;;;5081711;28;20235;-66
2024/01/29 03:14:29;;;;;;;1.27;1.17;;;;;3.20;101964.00;;;;5083249;28;20231;-66
2024/01/29 03:17:15;;;;;;;1.23;1.20;;;;;3.20;101958.00;;;;5083798;28;20235;-65
2024/01/29 03:20:02;;;;;;;1.53;1.43;;;;;3.20;101965.00;;;;5083675;28;20281;-67
2024/01/29 03:22:48;;;;;;;1.93;1.67;;;;;3.20;101964.00;;;;5079170;28;20316;-66
2024/01/29 03:25:35;;;;;;;1.30;1.23;;;;;3.20;101971.00;;;;5084225;28;20235;-65
2024/01/29 03:28:21;;;;;;;1.93;1.50;;;;;3.20;101959.00;;;;5079612;28;20235;-64
2024/01/29 03:31:09;;;;;;;1.70;1.60;;;;;3.10;101957.00;;;;5083112;28;20276;-65
2024/01/29 03:33:55;;;;;;;3.13;1.77;;;;;3.10;101959.00;;;;5077977;28;20227;-68
2024/01/29 03:36:43;;;;;;;2.30;1.70;;;;;3.10;101965.00;;;;5086821;28;20708;-65
2024/01/29 03:39:29;;;;;;;1.37;1.20;;;;;3.10;101951.00;;;;5084131;28;20297;-64
2024/01/29 03:42:16;;;;;;;1.33;1.23;;;;;3.00;101962.00;;;;5087329;28;20227;-65
2024/01/29 03:45:02;;;;;;;2.60;1.97;;;;;3.00;101966.00;;;;5087643;28;20244;-66
2024/01/29 03:47:49;;;;;;;1.70;1.60;;;;;3.00;101969.00;;;;5087275;28;20744;-66
2024/01/29 03:50:35;;;;;;;3.27;1.70;;;;;2.90;101961.00;;;;5086546;28;20309;-67
2024/01/29 03:53:22;;;;;;;1.20;1.20;;;;;2.90;101983.00;;;;5087235;28;20248;-65
2024/01/29 03:56:09;;;;;;;1.33;1.23;;;;;2.90;101965.00;;;;5087468;28;20235;-63
2024/01/29 03:58:55;;;;;;;2.20;2.00;;;;;2.90;101976.00;;;;5078879;28;20324;-66
2024/01/29 04:01:41;;;;;;;1.30;1.20;;;;;2.90;101969.00;;;;5084078;28;20234;-65
2024/01/29 04:04:29;;;;;;;3.27;1.53;;;;;2.90;101967.00;;;;5087144;28;20364;-67
2024/01/29 04:07:16;;;;;;;1.53;1.43;;;;;2.80;101957.00;;;;5085316;28;20223;-67
2024/01/29 04:10:02;;;;;;;1.63;1.53;;;;;2.70;101966.00;;;;5080237;28;20222;-66
2024/01/29 04:12:48;;;;;;;2.97;1.90;;;;;2.70;101949.00;;;;5086635;28;20713;-65
2024/01/29 04:15:35;;;;;;;1.17;1.17;;;;;2.70;101961.00;;;;5086556;28;20239;-66
2024/01/29 04:18:22;;;;;;;1.50;1.40;;;;;2.70;101959.00;;;;5084749;28;20231;-65
2024/01/29 04:21:09;;;;;;;1.70;1.60;;;;;2.60;101955.00;;;;5080650;28;20226;-66
2024/01/29 04:23:55;;;;;;;1.77;1.67;;;;;2.60;101948.00;;;;5086619;28;20748;-63
2024/01/29 04:26:42;;;;;;;2.80;1.50;;;;;2.50;101969.00;;;;5086288;28;20227;-65
2024/01/29 04:29:28;;;;;;;1.50;1.40;;;;;2.50;101957.00;;;;5087176;28;20779;-64
2024/01/29 04:32:15;;;;;;;3.27;1.27;;;;;2.50;101970.00;;;;5084793;28;20255;-65
2024/01/29 04:35:01;;;;;;;2.50;1.43;;;;;2.50;101968.00;;;;5084010;28;20592;-65
2024/01/29 04:37:51;;;;;;;1.23;1.17;;;;;2.50;101983.00;;;;5085881;28;20368;-64
2024/01/29 04:40:39;;;;;;;1.77;1.50;;;;;2.50;101972.00;;;;5082760;28;20835;-66
2024/01/29 04:43:25;;;;;;;1.77;1.50;;;;;2.50;101987.00;;;;5086354;28;20234;-65
2024/01/29 04:46:12;;;;;;;1.63;1.17;;;;;2.40;101978.00;;;;5081659;28;20362;-66
2024/01/29 04:48:58;;;;;;;1.43;1.27;;;;;2.50;101978.00;;;;5080719;28;20260;-63
2024/01/29 04:51:45;;;;;;;1.43;1.33;;;;;2.50;101982.00;;;;5085006;28;20238;-64
2024/01/29 04:54:32;;;;;;;3.33;1.47;;;;;2.40;101970.00;;;;5084408;28;20243;-65
2024/01/29 04:57:20;;;;;;;1.97;1.60;;;;;2.40;101968.00;;;;5078984;28;20234;-64
2024/01/29 05:00:08;;;;;;;2.20;1.40;;;;;2.40;101980.00;;;;5082062;28;20227;-66
2024/01/29 05:02:54;;;;;;;2.63;1.50;;;;;2.30;101985.00;;;;5083753;28;20659;-66
2024/01/29 05:05:41;;;;;;;1.70;1.53;;;;;2.30;101982.00;;;;5084163;28;20231;-66
2024/01/29 05:08:27;;;;;;;2.23;1.90;;;;;2.30;101980.00;;;;5083958;28;20235;-66
2024/01/29 05:11:15;;;;;;;1.93;1.53;;;;;2.30;101977.00;;;;5085424;28;20599;-64
2024/01/29 05:14:01;;;;;;;1.97;1.77;;;;;2.20;101971.00;;;;5081178;28;20645;-66
2024/01/29 05:16:47;;;;;;;1.77;1.63;;;;;2.20;101974.00;;;;5084441;28;20229;-65
2024/01/29 05:19:34;;;;;;;1.60;1.50;;;;;2.20;101972.00;;;;5084710;28;20728;-65
2024/01/29 05:22:21;;;;;;;1.83;1.73;;;;;2.20;101979.00;;;;5085360;28;20262;-65
2024/01/29 05:25:08;;;;;;;2.37;1.80;;;;;2.20;101980.00;;;;5085954;28;20284;-65
2024/01/29 05:27:56;;;;;;;3.50;1.90;;;;;2.20;101987.00;;;;5084938;28;20241;-65
2024/01/29 05:30:43;;;;;;;2.20;1.47;;;;;2.20;101988.00;;;;5083290;28;20771;-62
2024/01/29 05:33:29;;;;;;;2.10;1.53;;;;;2.10;101994.00;;;;5085270;28;20243;-65
2024/01/29 05:36:15;;;;;;;2.33;1.60;;;;;2.10;101982.00;;;;5079512;28;20253;-64
2024/01/29 05:39:01;;;;;;;1.80;1.70;;;;;2.10;101990.00;;;;5084620;28;20239;-65
2024/01/29 05:41:47;;;;;;;1.33;1.23;;;;;2.20;101993.00;;;;5084138;28;20229;-66
2024/01/29 05:44:35;;;;;;;2.43;1.70;;;;;2.10;101988.00;;;;5085394;28;20234;-64
2024/01/29 05:47:23;;;;;;;1.63;1.47;;;;;2.10;101995.00;;;;5079977;28;20424;-65
2024/01/29 05:50:10;;;;;;;1.97;1.73;;;;;2.10;102000.00;;;;5081785;28;21303;-66
2024/01/29 05:52:56;;;;;;;1.70;1.50;;;;;2.10;101999.00;;;;5083890;28;20352;-65
2024/01/29 05:55:43;;;;;;;1.67;1.57;;;;;2.20;102004.00;;;;5082558;28;20739;-66
2024/01/29 05:58:32;;;;;;;1.40;1.30;;;;;2.20;101993.00;;;;5083516;28;20235;-65
2024/01/29 06:01:19;;;;;;;2.13;1.83;;;;;2.10;101992.00;;;;5079667;28;20219;-64
2024/01/29 06:04:06;;;;;;;1.70;1.60;;;;;2.10;101995.00;;;;5083406;28;20234;-65
2024/01/29 06:06:53;;;;;;;1.57;1.47;;;;;2.20;102001.00;;;;5083702;28;20225;-65
2024/01/29 06:09:39;;;;;;;3.87;1.50;;;;;2.10;102000.00;;;;5083888;28;20740;-65
2024/01/29 06:12:26;;;;;;;1.73;1.63;;;;;2.10;102011.00;;;;5084363;28;20253;-67
2024/01/29 06:15:12;;;;;;;1.37;1.27;;;;;2.10;101998.00;;;;5078176;28;20724;-64
2024/01/29 06:18:00;;;;;;;2.03;1.63;;;;;2.10;101997.00;;;;5083564;28;20219;-65
2024/01/29 06:20:47;;;;;;;2.07;1.73;;;;;2.20;101991.00;;;;5084191;28;20230;-65
2024/01/29 06:23:34;;;;;;;3.50;1.90;;;;;2.20;102004.00;;;;5084414;28;20304;-67
2024/01/29 06:26:20;;;;;;;1.40;1.30;;;;;2.20;102004.00;;;;5079551;28;20293;-65
2024/01/29 06:29:06;;;;;;;2.37;1.73;;;;;2.20;102009.00;;;;5084967;28;20229;-64
2024/01/29 06:31:53;;;;;;;2.87;1.30;;;;;2.20;102004.00;;;;5083853;28;20290;-65
2024/01/29 06:34:40;;;;;;;1.97;1.43;;;;;2.20;102021.00;;;;5084030;28;20226;-66
2024/01/29 06:37:26;;;;;;;5.37;1.60;;;;;2.30;101997.00;;;;5083759;28;20232;-65
2024/01/29 06:40:13;;;;;;;1.70;1.60;;;;;2.30;101998.00;;;;5082693;28;20717;-65
2024/01/29 06:42:59;;;;;;;5.00;1.43;;;;;2.40;102016.00;;;;5081698;28;20293;-65
2024/01/29 06:45:46;;;;;;;1.10;1.10;;;;;2.40;102011.00;;;;5083719;28;20232;-65
2024/01/29 06:48:36;;;;;;;1.50;1.40;;;;;2.30;102004.00;;;;5079305;28;20250;-68
2024/01/29 06:51:24;;;;;;;3.87;2.90;;;;;2.40;102020.00;;;;5084528;28;20234;-65
2024/01/29 06:54:10;;;;;;;2.30;1.53;;;;;2.40;102021.00;;;;5077460;28;20304;-65
2024/01/29 06:56:57;;;;;;;3.23;1.80;;;;;2.50;102021.00;;;;5083375;28;20829;-66
2024/01/29 06:59:43;;;;;;;1.70;1.60;;;;;2.50;102021.00;;;;5084154;28;20227;-67
2024/01/29 07:02:29;;;;;;;2.20;1.63;;;;;2.50;102015.00;;;;5080213;28;20630;-69
2024/01/29 07:05:16;;;;;;;2.17;1.93;;;;;2.60;102015.00;;;;5081724;28;20310;-67
2024/01/29 07:08:05;;;;;;;3.60;1.90;;;;;2.60;102018.00;;;;5082140;28;20229;-64
2024/01/29 07:10:52;;;;;;;2.03;1.73;;;;;2.60;102030.00;;;;5085736;28;20239;-66
2024/01/29 07:13:38;;;;;;;3.20;2.10;;;;;2.70;102030.00;;;;5087969;28;20637;-64
2024/01/29 07:16:24;;;;;;;2.10;1.43;;;;;2.70;102024.00;;;;5081425;28;20246;-65
2024/01/29 07:19:11;;;;;;;1.67;1.57;;;;;2.70;102026.00;;;;5088324;28;20255;-65
2024/01/29 07:21:58;;;;;;;1.93;1.67;;;;;2.70;102039.00;;;;5087604;28;20304;-65
2024/01/29 07:24:45;;;;;;;2.60;1.80;;;;;2.70;102022.00;;;;5087424;28;20224;-66
2024/01/29 07:27:31;;;;;;;1.73;1.50;;;;;2.80;102031.00;;;;5085184;28;20371;-65
2024/01/29 07:30:18;;;;;;;1.70;1.53;;;;;2.80;102027.00;;;;5084727;28;20774;-64
2024/01/29 07:33:05;;;;;;;2.30;2.10;;;;;2.80;102038.00;;;;5081488;28;20231;-66
2024/01/29 07:35:51;;;;;;;2.30;2.03;;;;;2.80;102043.00;;;;5085634;28;20223;-65
2024/01/29 07:38:37;;;;;;;2.70;1.97;;;;;3.00;102032.00;;;;5087228;28;20230;-64
2024/01/29 07:41:26;;;;;;;3.57;2.00;;;;;3.10;102036.00;;;;5087076;28;20289;-64
2024/01/29 07:44:12;;;;;;;2.47;2.00;;;;;3.00;102030.00;;;;5087540;28;20679;-64
2024/01/29 07:46:58;;;;;;;2.40;2.20;;;;;3.00;102034.00;;;;5085663;28;20227;-64
2024/01/29 07:49:45;;;;;;;2.73;1.83;;;;;3.00;102043.00;;;;5087070;28;20782;-63
2024/01/29 07:52:31;;;;;;;2.33;1.97;;;;;3.10;102037.00;;;;5085249;28;20238;-64
2024/01/29 07:55:19;;;;;;;2.63;2.40;;;;;3.00;102035.00;;;;5085244;28;20239;-65
2024/01/29 07:58:08;;;;;;;2.07;1.80;;;;;3.10;102035.00;;;;5086807;28;21051;-63
2024/01/29 08:00:55;;;;;;;1.97;1.77;;;;;3.10;102039.00;;;;5085853;28;20979;-63
2024/01/29 08:03:41;;;;;;;3.30;2.03;;;;;3.20;102034.00;;;;5084455;28;20812;-63
2024/01/29 08:06:29;;;;;;;2.77;2.20;;;;;3.20;102031.00;;;;5086795;28;20247;-64
2024/01/29 08:09:16;;;;;;;2.73;2.27;;;;;3.20;102027.00;;;;5081481;28;20747;-64
2024/01/29 08:12:03;;;;;;;2.30;1.97;;;;;3.20;102034.00;;;;5086655;28;20227;-63
2024/01/29 08:14:50;;;;;;;5.17;3.10;;;;;3.20;102039.00;;;;5084027;28;20238;-64
2024/01/29 08:17:36;;;;;;;5.27;2.17;;;;;3.30;102038.00;;;;5086428;28;20705;-65
2024/01/29 08:20:24;;;;;;;2.33;2.13;;;;;3.40;102046.00;;;;5084321;28;20235;-65
2024/01/29 08:23:11;;;;;;;2.43;2.20;;;;;3.50;102039.00;;;;5083285;28;20246;-67
2024/01/29 08:25:57;;;;;;;4.83;2.37;;;;;3.50;102038.00;;;;5086474;28;20289;-67
2024/01/29 08:28:43;;;;;;;3.20;2.07;;;;;3.70;102042.00;;;;5086456;28;20227;-66
2024/01/29 08:31:32;;;;;;;2.23;2.03;;;;;3.80;102037.00;;;;5086214;28;20231;-64
2024/01/29 08:34:18;;;;;;;3.17;2.47;;;;;3.90;102043.00;;;;5085286;28;20844;-64
2024/01/29 08:37:05;;;;;;;3.37;2.63;;;;;4.00;102052.00;;;;5084912;28;20231;-66
2024/01/29 08:39:51;;;;;;;3.73;2.13;;;;;4.20;102054.00;;;;5085970;28;20229;-64
2024/01/29 08:42:38;;;;;;;4.83;1.87;;;;;4.20;102045.00;;;;5086888;28;20284;-62
2024/01/29 08:45:24;;;;;;;3.17;2.50;;;;;4.30;102054.00;;;;5080243;28;20722;-65
2024/01/29 08:48:12;;;;;;;5.07;2.87;;;;;4.50;102061.00;;;;5085503;28;20725;-65
2024/01/29 08:50:59;;;;;;;5.53;2.77;;;;;4.70;102065.00;;;;5085006;28;20230;-64
2024/01/29 08:53:45;;;;;;;3.50;2.30;;;;;4.90;102058.00;;;;5086391;28;20607;-64
2024/01/29 08:56:31;;;;;;;3.20;2.50;;;;;5.20;102061.00;;;;5081643;28;20298;-64
2024/01/29 08:59:19;;;;;;;3.63;2.87;;;;;5.30;102065.00;;;;5086249;28;20312;-65
2024/01/29 09:02:05;;;;;;;2.87;2.43;;;;;5.60;102070.00;;;;5085535;28;20227;-65
2024/01/29 09:04:53;;;;;;;3.63;3.20;;;;;5.70;102076.00;;;;5083498;28;20223;-65
2024/01/29 09:07:39;;;;;;;6.90;3.33;;;;;5.80;102078.00;;;;5085591;28;20290;-66
2024/01/29 09:10:26;;;;;;;3.57;2.70;;;;;6.00;102072.00;;;;5077086;28;20242;-64
2024/01/29 09:13:12;;;;;;;4.93;2.23;;;;;6.10;102080.00;;;;5086009;28;20295;-68
2024/01/29 09:15:59;;;;;;;3.00;2.67;;;;;6.10;102079.00;;;;5082777;28;20317;-67
2024/01/29 09:18:45;;;;;;;3.87;2.83;;;;;6.10;102080.00;;;;5081501;28;20236;-64
2024/01/29 09:21:35;;;;;;;6.50;3.03;;;;;6.20;102074.00;;;;5081825;28;20254;-65
2024/01/29 09:24:21;;;;;;;6.10;3.10;;;;;6.40;102070.00;;;;5084577;28;20343;-65
2024/01/29 09:27:08;;;;;;;4.10;2.67;;;;;6.50;102073.00;;;;5085298;28;20732;-66
2024/01/29 09:29:54;;;;;;;5.37;3.73;;;;;6.60;102066.00;;;;5085336;28;20242;-66
2024/01/29 09:32:40;;;;;;;7.40;3.53;;;;;6.90;102059.00;;;;5081513;28;20327;-65
2024/01/29 09:35:27;;;;;;;3.67;2.93;;;;;7.00;102060.00;;;;5083162;28;20250;-65
2024/01/29 09:38:15;;;;;;;5.87;3.00;;;;;7.10;102075.00;;;;5082816;28;20224;-66
2024/01/29 09:41:01;;;;;;;3.97;2.63;;;;;7.20;102076.00;;;;5083349;28;20258;-61
2024/01/29 09:43:48;;;;;;;6.70;3.77;;;;;7.30;102079.00;;;;5082611;28;20233;-65
2024/01/29 09:46:38;;;;;;;7.50;3.63;;;;;7.40;102086.00;;;;5084622;28;20266;-65
2024/01/29 09:49:24;;;;;;;4.37;2.63;;;;;7.50;102083.00;;;;5082275;28;20252;-64
2024/01/29 09:52:12;;;;;;;6.50;3.40;;;;;7.70;102081.00;;;;5083737;28;20241;-64
2024/01/29 09:55:00;;;;;;;4.57;2.53;;;;;7.80;102078.00;;;;5084580;28;20242;-63
2024/01/29 09:57:47;;;;;;;8.20;3.20;;;;;7.80;102079.00;;;;5082056;28;20283;-65
2024/01/29 10:00:33;;;;;;;5.57;3.20;;;;;7.90;102089.00;;;;5082677;28;20219;-65
2024/01/29 10:03:25;;;;;;;5.53;4.00;;;;;8.10;102079.00;;;;5083086;28;20357;-66
2024/01/29 10:06:12;;;;;;;6.33;3.73;;;;;8.20;102098.00;;;;5084467;28;20690;-66
2024/01/29 10:08:58;;;;;;;9.83;4.47;;;;;8.30;102096.00;;;;5082625;28;20340;-65
2024/01/29 10:11:46;;;;;;;6.30;3.97;;;;;8.50;102095.00;;;;5084429;28;20285;-68
2024/01/29 10:14:33;;;;;;;4.43;2.93;;;;;8.70;102090.00;;;;5081544;28;20283;-66
2024/01/29 10:17:19;;;;;;;4.97;3.33;;;;;8.80;102100.00;;;;5080022;28;20247;-67
2024/01/29 10:20:17;;;;;;;6.07;3.50;;;;;9.00;102091.00;;;;5082612;28;20223;-65
2024/01/29 10:23:05;;;;;;;5.63;3.30;;;;;9.30;102097.00;;;;5082291;28;20220;-67
2024/01/29 10:25:55;;;;;;;4.73;2.53;;;;;9.60;102094.00;;;;5079124;28;20242;-66
2024/01/29 10:28:43;;;;;;;4.23;3.13;;;;;9.80;102089.00;;;;5084325;28;20239;-65
2024/01/29 10:31:29;;;;;;;3.93;3.10;;;;;9.90;102083.00;;;;5084075;28;20305;-65
2024/01/29 10:34:16;;;;;;;6.87;3.00;;;;;10.00;102088.00;;;;5083657;28;21032;-66
2024/01/29 10:37:04;;;;;;;3.40;3.00;;;;;10.20;102087.00;;;;5081688;28;20226;-65
2024/01/29 10:39:51;;;;;;;4.90;3.70;;;;;10.30;102081.00;;;;5083456;28;20231;-64
2024/01/29 10:42:49;;;;;;;6.67;3.67;;;;;10.50;102093.00;;;;5080837;28;20303;-67
2024/01/29 10:45:41;;;;;;;5.37;3.40;;;;;10.70;102098.00;;;;5083502;28;20227;-66
2024/01/29 10:48:30;;;;;;;5.03;3.30;;;;;10.80;102103.00;;;;5083478;28;20305;-63
2024/01/29 10:51:17;;;;;;;4.77;3.13;;;;;11.00;102103.00;;;;5081379;28;20369;-67
2024/01/29 10:54:04;;;;;;;8.93;3.67;;;;;11.00;102092.00;;;;5081912;28;20223;-67
2024/01/29 10:56:51;;;;;;;5.33;3.20;;;;;11.10;102097.00;;;;5083966;28;20701;-66
2024/01/29 10:59:41;;;;;;;3.97;2.80;;;;;11.30;102092.00;;;;5078484;28;20226;-65
2024/01/29 11:02:29;;;;;;;4.50;3.17;;;;;11.20;102094.00;;;;5080817;28;20753;-66
2024/01/29 11:05:18;;;;;;;4.50;3.10;;;;;11.20;102095.00;;;;5084237;28;20223;-64
2024/01/29 11:08:08;;;;;;;5.03;3.10;;;;;11.20;102101.00;;;;5079760;28;20240;-68
2024/01/29 11:10:55;;;;;;;5.23;3.17;;;;;11.20;102106.00;;;;5082611;28;20314;-66
2024/01/29 11:13:43;;;;;;;7.60;3.57;;;;;11.10;102106.00;;;;5080107;28;20227;-65
2024/01/29 11:16:30;;;;;;;5.03;3.40;;;;;11.10;102110.00;;;;5083144;28;20373;-70
2024/01/29 11:19:18;;;;;;;5.30;3.57;;;;;11.20;102107.00;;;;5083928;28;20235;-66
2024/01/29 11:22:04;;;;;;;5.47;3.50;;;;;11.30;102109.00;;;;5080973;28;20251;-66
2024/01/29 11:24:51;;;;;;;4.53;3.17;;;;;11.50;102114.00;;;;5083532;28;20227;-64
2024/01/29 11:27:38;;;;;;;4.90;3.43;;;;;11.60;102117.00;;;;5083599;28;20230;-63
2024/01/29 11:30:25;;;;;;;4.20;3.23;;;;;11.70;102111.00;;;;5082074;28;20312;-65
2024/01/29 11:33:14;;;;;;;5.03;3.43;;;;;11.80;102110.00;;;;5084614;28;20613;-66
2024/01/29 11:36:09;;;;;;;6.33;3.13;;;;;11.90;102111.00;;;;5081159;28;20239;-65
2024/01/29 11:39:03;;;;;;;4.73;3.00;;;;;11.90;102104.00;;;;5080076;28;20235;-67
2024/01/29 11:41:50;;;;;;;7.57;3.50;;;;;12.00;102104.00;;;;5083748;28;20228;-66
2024/01/29 11:44:37;;;;;;;8.80;3.37;;;;;12.00;102112.00;;;;5077780;28;20324;-66
2024/01/29 11:47:24;;;;;;;5.63;3.60;;;;;12.10;102114.00;;;;5082774;28;20231;-65
2024/01/29 11:50:10;;;;;;;5.23;3.40;;;;;12.10;102118.00;;;;5080893;28;20312;-67
2024/01/29 11:52:58;;;;;;;5.20;3.53;;;;;12.20;102115.00;;;;5082227;28;20231;-65
2024/01/29 11:55:52;;;;;;;5.77;3.07;;;;;12.30;102113.00;;;;5084487;28;20746;-65
2024/01/29 11:58:38;;;;;;;5.87;3.43;;;;;12.20;102110.00;;;;5085866;28;20239;-65
2024/01/29 12:01:24;;;;;;;3.80;2.80;;;;;12.30;102104.00;;;;5086964;28;20353;-65
2024/01/29 12:04:11;;;;;;;5.03;3.27;;;;;12.30;102103.00;;;;5084470;28;20286;-65
2024/01/29 12:06:57;;;;;;;6.80;3.60;;;;;12.30;102101.00;;;;5085398;28;20669;-66
2024/01/29 12:09:47;;;;;;;6.30;3.60;;;;;12.30;102103.00;;;;5085200;28;20272;-66
2024/01/29 12:12:33;;;;;;;5.80;3.10;;;;;12.40;102115.00;;;;5087187;28;20226;-64
2024/01/29 12:15:20;;;;;;;5.43;3.63;;;;;12.40;102099.00;;;;5084602;28;20243;-67
2024/01/29 12:18:17;;;;;;;4.33;3.60;;;;;12.50;102108.00;;;;5085424;28;20236;-65
2024/01/29 12:21:05;;;;;;;6.27;3.53;;;;;12.60;102107.00;;;;5083740;28;20237;-68
2024/01/29 12:23:51;;;;;;;5.20;3.40;;;;;12.60;102103.00;;;;5084916;28;20249;-67
2024/01/29 12:26:42;;;;;;;6.50;3.67;;;;;12.80;102099.00;;;;5085095;28;20758;-66
2024/01/29 12:29:28;;;;;;;5.43;3.47;;;;;13.00;102094.00;;;;5083078;28;20350;-67
2024/01/29 12:32:19;;;;;;;4.90;3.60;;;;;13.00;102110.00;;;;5083196;28;20300;-65
2024/01/29 12:35:24;;;;;;;4.70;3.53;;;;;13.00;102096.00;;;;5082356;28;20286;-68
2024/01/29 12:38:14;;;;;;;5.87;3.40;;;;;13.10;102099.00;;;;5083120;28;20941;-67
2024/01/29 12:41:00;;;;;;;5.10;4.00;;;;;13.10;102099.00;;;;5082761;28;20345;-67
2024/01/29 12:43:49;;;;;;;6.13;3.67;;;;;13.20;102107.00;;;;5085823;28;20238;-65
2024/01/29 12:46:36;;;;;;;7.13;3.60;;;;;13.20;102101.00;;;;5086558;28;20223;-67
2024/01/29 12:49:22;;;;;;;5.97;3.40;;;;;13.20;102099.00;;;;5085264;28;20276;-65
2024/01/29 12:52:10;;;;;;;4.27;3.13;;;;;13.10;102100.00;;;;5085069;28;20293;-67
2024/01/29 12:54:57;;;;;;;6.20;3.70;;;;;13.00;102104.00;;;;5085383;28;20240;-66
2024/01/29 12:57:43;;;;;;;5.97;3.87;;;;;13.00;102097.00;;;;5086500;28;20272;-70
2024/01/29 13:00:31;;;;;;;5.27;3.57;;;;;13.00;102096.00;;;;5085425;28;20713;-68
2024/01/29 13:03:17;;;;;;;5.93;3.50;;;;;13.00;102099.00;;;;5085644;28;20228;-70
2024/01/29 13:06:05;;;;;;;4.40;3.30;;;;;13.10;102112.00;;;;5082258;28;20299;-67
2024/01/29 13:08:51;;;;;;;5.27;3.73;;;;;13.00;102105.00;;;;5078237;28;20237;-66
2024/01/29 13:11:37;;;;;;;6.03;3.83;;;;;13.00;102108.00;;;;5085926;28;20226;-66
2024/01/29 13:14:23;;;;;;;5.53;3.63;;;;;13.00;102110.00;;;;5085576;28;20237;-68
2024/01/29 13:17:11;;;;;;;5.30;3.70;;;;;13.00;102109.00;;;;5084093;28;20237;-67
2024/01/29 13:19:58;;;;;;;6.63;3.97;;;;;13.00;102114.00;;;;5085034;28;20294;-65
2024/01/29 13:22:44;;;;;;;8.77;3.40;;;;;13.00;102107.00;;;;5086100;28;20348;-65
2024/01/29 13:25:30;;;;;;;6.60;4.10;;;;;13.00;102113.00;;;;5084942;28;20399;-66
2024/01/29 13:28:17;;;;;;;6.00;3.53;;;;;12.90;102098.00;;;;5084758;28;20296;-65
2024/01/29 13:31:04;;;;;;;7.63;3.67;;;;;12.80;102103.00;;;;5084737;28;20860;-65
2024/01/29 13:33:51;;;;;;;5.03;3.53;;;;;12.80;102115.00;;;;5086113;28;20232;-67
2024/01/29 13:36:38;;;;;;;6.20;3.73;;;;;12.80;102109.00;;;;5085679;28;20776;-66
2024/01/29 13:39:24;;;;;;;5.67;3.90;;;;;12.80;102111.00;;;;5085172;28;20884;-68
2024/01/29 13:42:11;;;;;;;8.77;3.53;;;;;12.80;102102.00;;;;5082475;28;20236;-68
2024/01/29 13:44:58;;;;;;;6.47;3.87;;;;;12.80;102110.00;;;;5080403;28;20234;-66
2024/01/29 13:47:47;;;;;;;6.07;3.53;;;;;12.80;102109.00;;;;5085156;28;20770;-70
2024/01/29 13:50:35;;;;;;;5.30;3.57;;;;;12.80;102106.00;;;;5084921;28;20224;-66
2024/01/29 13:53:22;;;;;;;7.57;3.70;;;;;12.70;102109.00;;;;5083247;28;20234;-63
2024/01/29 13:56:08;;;;;;;6.90;4.07;;;;;12.70;102113.00;;;;5084601;28;20223;-66